Estación Meteorológica Peña el Pijo (Robertgarden) [ 11/30/23 14:54:01 CET ]

Fecha Hora Presion(HPa) Temp (°C) Humedad % Rocio (°C) Viento ( m/s) Direccion Lluvia 1Hora(mm) Lluvia 24H(mm) LLuvia Total(mm)
2015-Dec-06 01:01:13 1019.700 1.6 77 -2.0         658.37
2015-Dec-06 02:08:41 1019.300 1.3 78 -2.2         658.37
2015-Dec-06 03:02:08 1018.800 0.3 80 -2.7         658.37
2015-Dec-06 04:01:12 1018.800 0.7 81 -2.2         658.37
2015-Dec-06 05:01:12 1018.500 0.4 82 -2.3         658.37
2015-Dec-06 06:01:17 1018.200 -0.1 82 -2.8         658.37
2015-Dec-06 07:01:11 1018.300 -0.7 83 -3.2         658.37
2015-Dec-06 08:01:17 1018.600 -1.2 84 -3.6         658.37
2015-Dec-06 09:01:16 1018.800 -0.4 85 -2.6         658.37
2015-Dec-06 10:01:13 1018.800 5.6 84 3.1         658.37
2015-Dec-06 11:01:11 1018.900 11.3 72 6.5         658.37
2015-Dec-06 12:01:14 1018.500 14.2 50 4.0         658.37
2015-Dec-06 13:01:13 1018.000 14.3 48 3.4         658.37
2015-Dec-06 14:01:16 1017.500 16.4 43 3.7         658.37
2015-Dec-06 15:01:11 1017.000 16.2 45 4.2         658.37
2015-Dec-06 16:01:17 1016.900 14.9 49 4.3         658.37
2015-Dec-06 17:01:14 1017.500 12.1 57 3.8         658.37
2015-Dec-06 18:01:13 1017.900 9.4 65 3.1         658.37
2015-Dec-06 19:01:14 1018.400 6.4 70 1.4         658.37
2015-Dec-06 20:01:16 1019.100 3.9 74 -0.3         658.37
2015-Dec-06 21:01:13 1019.000 2.4 78 -1.1         658.37
2015-Dec-06 22:01:12 1019.300 1.3 80 -1.8         658.37
2015-Dec-06 23:01:12 1019.800 0.9 82 -1.9         658.37

Temperatura Máxima:16°    Temperatura Mínima:-1°
Presión Máxima:1019.800 Hpa    Presión Mínima:1016.900 Hpa


Volver